createdAt,value
2019-05-15T00:01:44.545Z,16.28
2019-05-15T00:04:20.965Z,16.16
2019-05-15T00:06:53.792Z,16.15
2019-05-15T00:09:28.479Z,16.06
2019-05-15T00:12:01.286Z,16.09
2019-05-15T00:14:33.317Z,16.04
2019-05-15T00:17:05.336Z,15.93
2019-05-15T00:19:38.906Z,15.87
2019-05-15T00:22:14.384Z,15.96
2019-05-15T00:24:48.658Z,15.94
2019-05-15T00:27:20.394Z,15.84
2019-05-15T00:30:02.292Z,15.65
2019-05-15T00:32:39.413Z,15.53
2019-05-15T00:35:14.586Z,15.37
2019-05-15T00:37:49.050Z,15.37
2019-05-15T00:40:28.776Z,15.33
2019-05-15T00:42:59.956Z,15.30
2019-05-15T00:52:12.306Z,15.27
2019-05-15T00:54:44.680Z,15.38
2019-05-15T01:05:10.946Z,15.68
2019-05-15T01:06:54.674Z,15.70
2019-05-15T01:07:18.807Z,15.59
2019-05-15T01:09:29.180Z,15.70
2019-05-15T01:12:01.409Z,15.67
2019-05-15T01:14:34.945Z,15.63
2019-05-15T01:17:22.315Z,15.54
2019-05-15T01:20:25.432Z,15.48
2019-05-15T01:23:03.292Z,15.46
2019-05-15T01:25:38.938Z,15.33
2019-05-15T01:28:25.922Z,15.16
2019-05-15T01:31:02.546Z,15.01
2019-05-15T01:33:39.267Z,14.82
2019-05-15T01:36:28.726Z,14.71
2019-05-15T01:39:13.242Z,14.60
2019-05-15T01:41:53.852Z,14.52
2019-05-15T01:44:35.571Z,14.52
2019-05-15T01:47:28.166Z,14.52
2019-05-15T01:50:41.506Z,14.60
2019-05-15T01:53:14.460Z,14.61
2019-05-15T01:55:54.728Z,14.67
2019-05-15T02:02:13.675Z,14.81
2019-05-15T02:08:12.424Z,14.68
2019-05-15T02:10:44.447Z,14.75
2019-05-15T02:14:08.086Z,14.63
2019-05-15T02:16:39.549Z,14.57
2019-05-15T02:19:52.435Z,14.42
2019-05-15T02:22:28.344Z,14.29
2019-05-15T02:25:00.481Z,14.34
2019-05-15T02:30:34.198Z,14.38
2019-05-15T02:33:25.990Z,14.29
2019-05-15T02:36:00.103Z,14.27
2019-05-15T02:38:32.134Z,14.28
2019-05-15T02:45:04.348Z,14.18
2019-05-15T02:51:19.112Z,14.12
2019-05-15T02:54:30.462Z,14.01
2019-05-15T02:57:03.809Z,13.95
2019-05-15T02:59:39.328Z,13.94
2019-05-15T03:02:12.838Z,13.94
2019-05-15T03:04:44.825Z,13.89
2019-05-15T03:07:19.250Z,13.90
2019-05-15T03:09:52.401Z,13.89
2019-05-15T03:12:28.831Z,13.87
2019-05-15T03:15:00.310Z,13.84
2019-05-15T03:17:32.439Z,13.79
2019-05-15T03:20:10.314Z,13.65
2019-05-15T03:22:42.277Z,13.53
2019-05-15T03:25:18.970Z,13.50
2019-05-15T03:27:50.099Z,13.54
2019-05-15T03:30:23.153Z,13.45
2019-05-15T03:33:03.860Z,13.41
2019-05-15T03:35:33.134Z,13.37
2019-05-15T03:38:05.454Z,13.40
2019-05-15T03:40:39.755Z,13.37
2019-05-15T03:43:12.511Z,13.37
2019-05-15T03:45:44.985Z,13.37
2019-05-15T03:48:19.522Z,13.34
2019-05-15T03:50:50.684Z,13.31
2019-05-15T03:53:23.020Z,13.27
2019-05-15T03:55:58.660Z,13.23
2019-05-15T03:58:30.754Z,13.05
2019-05-15T04:01:02.901Z,13.09
2019-05-15T04:03:34.849Z,13.11
2019-05-15T04:06:10.166Z,13.09
2019-05-15T04:08:40.984Z,13.07
2019-05-15T04:11:15.981Z,13.05
2019-05-15T04:13:50.221Z,13.07
2019-05-15T04:16:22.653Z,12.99
2019-05-15T04:18:54.913Z,13.01
2019-05-15T04:21:30.371Z,13.03
2019-05-15T04:24:03.079Z,13.04
2019-05-15T04:26:39.211Z,13.04
2019-05-15T04:29:12.535Z,13.01
2019-05-15T04:31:58.057Z,12.88
2019-05-15T04:34:19.445Z,12.78
2019-05-15T04:36:51.710Z,12.67
2019-05-15T04:39:23.769Z,12.60
2019-05-15T04:41:55.734Z,12.61
2019-05-15T04:44:28.915Z,12.63
2019-05-15T04:47:02.115Z,12.68
2019-05-15T04:49:39.429Z,12.64
2019-05-15T04:52:10.852Z,12.64
2019-05-15T04:54:44.290Z,12.66
2019-05-15T04:57:19.164Z,12.63
2019-05-15T04:59:50.028Z,12.50
2019-05-15T05:02:26.450Z,12.43
2019-05-15T05:04:58.606Z,12.42
2019-05-15T05:07:29.744Z,12.41
2019-05-15T05:10:09.557Z,12.31
2019-05-15T05:12:42.654Z,12.24
2019-05-15T05:15:14.786Z,12.26
2019-05-15T05:17:48.991Z,12.26
2019-05-15T05:20:21.044Z,12.33
2019-05-15T05:22:53.033Z,12.33
2019-05-15T05:25:27.831Z,12.37
2019-05-15T05:28:03.622Z,12.43
2019-05-15T05:30:38.432Z,12.52
2019-05-15T05:33:11.117Z,12.50
2019-05-15T05:35:43.087Z,12.63
2019-05-15T05:38:19.132Z,12.67
2019-05-15T05:40:51.100Z,12.65
2019-05-15T05:43:23.043Z,12.68
2019-05-15T05:45:58.118Z,12.76
2019-05-15T05:48:29.469Z,12.85
2019-05-15T05:51:01.461Z,12.97
2019-05-15T05:53:33.408Z,13.11
2019-05-15T05:56:05.594Z,13.34
2019-05-15T05:58:38.987Z,13.46
2019-05-15T06:01:11.329Z,13.90
2019-05-15T06:03:43.272Z,15.01
2019-05-15T06:06:18.604Z,16.56
2019-05-15T06:08:52.541Z,17.76
2019-05-15T06:11:24.543Z,18.32
2019-05-15T06:13:58.424Z,19.21
2019-05-15T06:16:30.165Z,20.04
2019-05-15T06:19:02.217Z,21.48
2019-05-15T06:21:34.195Z,22.50
2019-05-15T06:24:12.737Z,22.93
2019-05-15T06:26:40.075Z,23.53
2019-05-15T06:29:12.074Z,24.92
2019-05-15T06:31:43.993Z,26.27
2019-05-15T06:34:17.884Z,26.79
2019-05-15T06:36:49.744Z,26.74
2019-05-15T06:39:23.223Z,26.45
2019-05-15T06:41:55.593Z,27.23
2019-05-15T06:44:28.089Z,28.06
2019-05-15T06:47:00.059Z,28.07
2019-05-15T06:49:41.371Z,28.58
2019-05-15T06:52:19.015Z,29.30
2019-05-15T06:54:59.181Z,29.62
2019-05-15T06:57:30.773Z,30.22
2019-05-15T07:00:02.739Z,31.48
2019-05-15T07:02:34.845Z,32.22
2019-05-15T07:05:07.854Z,32.70
2019-05-15T07:07:41.813Z,33.06
2019-05-15T07:10:13.844Z,31.60
2019-05-15T07:12:48.483Z,32.67
2019-05-15T07:15:22.826Z,32.13
2019-05-15T07:17:54.768Z,33.39
2019-05-15T07:20:28.501Z,34.42
2019-05-15T07:23:00.560Z,34.91
2019-05-15T07:25:32.582Z,33.86
2019-05-15T07:28:04.635Z,34.35
2019-05-15T07:30:41.118Z,31.51
2019-05-15T07:33:11.872Z,30.78
2019-05-15T07:35:43.887Z,31.77
2019-05-15T07:38:18.747Z,32.98
2019-05-15T07:40:59.312Z,34.39
2019-05-15T07:43:28.088Z,33.60
2019-05-15T07:46:00.231Z,33.09
2019-05-15T07:48:33.319Z,34.60
2019-05-15T07:51:05.262Z,35.75
2019-05-15T07:53:38.474Z,36.52
2019-05-15T07:56:12.223Z,36.95
2019-05-15T07:58:44.568Z,37.51
2019-05-15T08:01:18.513Z,38.34
2019-05-15T08:03:58.744Z,39.07
2019-05-15T08:06:24.850Z,39.35
2019-05-15T08:08:59.046Z,38.92
2019-05-15T08:11:30.634Z,39.20
2019-05-15T08:14:03.755Z,39.05
2019-05-15T08:16:35.870Z,38.82
2019-05-15T08:19:08.819Z,39.64
2019-05-15T08:21:40.845Z,40.32
2019-05-15T08:24:13.458Z,40.16
2019-05-15T08:26:45.691Z,41.62
2019-05-15T08:29:21.625Z,43.01
2019-05-15T08:31:51.987Z,43.55
2019-05-15T08:34:24.054Z,43.34
2019-05-15T08:36:58.335Z,43.30
2019-05-15T08:39:29.758Z,43.16
2019-05-15T08:42:01.726Z,43.96
2019-05-15T08:44:35.604Z,45.02
2019-05-15T08:47:08.204Z,43.76
2019-05-15T08:49:44.293Z,43.76
2019-05-15T08:52:18.715Z,43.24
2019-05-15T08:54:50.273Z,44.77
2019-05-15T08:57:22.263Z,45.37
2019-05-15T08:59:54.239Z,46.10
2019-05-15T09:02:28.738Z,46.50
2019-05-15T09:05:02.420Z,46.88
2019-05-15T09:07:34.404Z,47.04
2019-05-15T09:10:08.964Z,47.48
2019-05-15T09:12:41.446Z,47.74
2019-05-15T09:15:14.248Z,48.58
2019-05-15T09:17:48.618Z,48.78
2019-05-15T09:20:21.594Z,47.28
2019-05-15T09:22:53.618Z,46.37
2019-05-15T09:25:28.632Z,47.71
2019-05-15T09:27:59.676Z,48.38
2019-05-15T09:30:32.985Z,48.36
2019-05-15T09:33:08.663Z,47.76
2019-05-15T09:35:41.197Z,46.84
2019-05-15T09:38:13.191Z,45.82
2019-05-15T09:40:46.561Z,44.84
2019-05-15T09:43:18.919Z,44.22
2019-05-15T09:45:50.880Z,45.13
2019-05-15T09:48:22.830Z,46.01
2019-05-15T09:50:54.792Z,47.45
2019-05-15T09:53:28.518Z,47.63
2019-05-15T09:56:00.848Z,48.04
2019-05-15T09:58:33.392Z,48.19
2019-05-15T10:01:08.158Z,48.86
2019-05-15T10:03:44.074Z,49.33
2019-05-15T10:06:12.976Z,50.17
2019-05-15T10:08:48.734Z,49.78
2019-05-15T10:11:19.990Z,49.58
2019-05-15T10:13:51.954Z,49.30
2019-05-15T10:16:24.845Z,48.18
2019-05-15T10:18:58.553Z,46.22
2019-05-15T10:21:32.570Z,42.59
2019-05-15T10:24:04.346Z,40.76
2019-05-15T10:26:36.252Z,41.06
2019-05-15T10:29:09.110Z,41.64
2019-05-15T10:31:41.319Z,44.00
2019-05-15T10:34:13.369Z,43.63
2019-05-15T10:36:45.673Z,42.78
2019-05-15T10:39:22.376Z,42.50
2019-05-15T10:41:54.364Z,43.42
2019-05-15T10:44:28.525Z,44.27
2019-05-15T10:47:00.139Z,43.90
2019-05-15T10:49:32.139Z,44.31
2019-05-15T10:52:04.079Z,44.43
2019-05-15T10:54:38.144Z,42.63
2019-05-15T10:57:09.848Z,43.71
2019-05-15T10:59:41.790Z,43.82
2019-05-15T11:02:13.844Z,43.59
2019-05-15T11:04:48.836Z,41.45
2019-05-15T11:07:20.805Z,38.31
2019-05-15T11:09:52.889Z,38.51
2019-05-15T11:12:24.844Z,39.66
2019-05-15T11:14:57.240Z,40.03
2019-05-15T11:17:31.594Z,41.20
2019-05-15T11:20:02.985Z,41.93
2019-05-15T11:22:35.010Z,41.71
2019-05-15T11:25:09.755Z,40.78
2019-05-15T11:27:48.440Z,39.93
2019-05-15T11:30:23.331Z,41.12
2019-05-15T11:33:00.880Z,42.44
2019-05-15T11:36:06.039Z,41.32
2019-05-15T11:38:38.164Z,41.01
2019-05-15T11:41:10.476Z,40.44
2019-05-15T11:43:42.611Z,40.45
2019-05-15T11:46:18.541Z,39.23
2019-05-15T11:48:50.799Z,35.91
2019-05-15T11:51:22.792Z,35.00
2019-05-15T11:53:54.865Z,35.03
2019-05-15T11:56:29.348Z,34.75
2019-05-15T11:59:00.649Z,34.53
2019-05-15T12:01:32.690Z,33.96
2019-05-15T12:04:09.237Z,33.55
2019-05-15T12:06:40.951Z,33.04
2019-05-15T12:09:13.174Z,32.46
2019-05-15T12:11:45.221Z,32.66
2019-05-15T12:14:19.327Z,32.43
2019-05-15T12:17:06.968Z,32.25
2019-05-15T12:19:29.176Z,32.69
2019-05-15T12:22:03.796Z,33.20
2019-05-15T12:24:36.999Z,32.92
2019-05-15T12:27:15.385Z,32.93
2019-05-15T12:29:44.846Z,33.12
2019-05-15T12:32:28.733Z,33.18
2019-05-15T12:34:52.563Z,32.99
2019-05-15T12:37:24.570Z,32.44
2019-05-15T13:00:29.811Z,32.69
2019-05-15T13:03:03.664Z,32.53
2019-05-15T13:05:35.714Z,32.48
2019-05-15T13:08:10.008Z,32.24
2019-05-15T13:10:42.359Z,32.02
2019-05-15T13:13:14.480Z,31.69
2019-05-15T13:15:48.275Z,31.58
2019-05-15T13:18:20.370Z,31.29
2019-05-15T13:20:52.355Z,31.42
2019-05-15T13:23:24.351Z,31.24
2019-05-15T13:25:59.110Z,31.18
2019-05-15T13:28:31.485Z,31.10
2019-05-15T13:31:03.562Z,30.96
2019-05-15T13:33:35.500Z,31.32
2019-05-15T13:36:08.974Z,31.06
2019-05-15T13:38:41.194Z,31.01
2019-05-15T13:41:13.405Z,30.97
2019-05-15T13:43:45.413Z,30.79
2019-05-15T13:46:20.711Z,30.48
2019-05-15T13:48:51.249Z,30.49
2019-05-15T13:51:23.319Z,30.41
2019-05-15T13:53:55.540Z,30.41
2019-05-15T13:56:28.960Z,30.33
2019-05-15T13:59:01.542Z,29.67
2019-05-15T14:01:33.846Z,29.65
2019-05-15T14:04:08.543Z,29.88
2019-05-15T14:06:41.678Z,29.82
2019-05-15T14:09:13.638Z,29.95
2019-05-15T14:11:48.906Z,29.98
2019-05-15T14:14:19.422Z,29.77
2019-05-15T14:16:51.411Z,29.65
2019-05-15T14:19:23.563Z,29.18
2019-05-15T14:22:01.290Z,28.86
2019-05-15T14:24:33.377Z,29.02
2019-05-15T14:27:05.630Z,29.28
2019-05-15T14:29:37.595Z,29.08
2019-05-15T14:32:09.924Z,29.38
2019-05-15T14:34:41.924Z,29.44
2019-05-15T14:37:14.130Z,29.37
2019-05-15T14:39:52.035Z,29.43
2019-05-15T14:42:20.536Z,29.40
2019-05-15T14:44:53.553Z,29.52
2019-05-15T14:47:26.409Z,29.44
2019-05-15T14:49:59.625Z,29.17
2019-05-15T14:52:31.617Z,29.46
2019-05-15T14:55:06.566Z,29.45
2019-05-15T14:57:39.572Z,29.53
2019-05-15T15:00:12.241Z,29.47
2019-05-15T15:02:44.334Z,29.56
2019-05-15T15:05:19.995Z,29.42
2019-05-15T15:07:50.360Z,29.50
2019-05-15T15:10:22.440Z,29.17
2019-05-15T15:12:55.020Z,29.37
2019-05-15T15:15:28.742Z,29.46
2019-05-15T15:18:01.083Z,29.19
2019-05-15T15:20:33.196Z,29.24
2019-05-15T15:23:08.253Z,29.07
2019-05-15T15:25:39.977Z,29.00
2019-05-15T15:28:12.430Z,28.90
2019-05-15T15:30:44.865Z,28.58
2019-05-15T15:33:16.912Z,28.62
2019-05-15T15:35:50.780Z,28.69
2019-05-15T15:38:37.563Z,28.66
2019-05-15T15:41:00.330Z,28.76
2019-05-15T15:43:32.331Z,28.15
2019-05-15T15:46:08.418Z,28.31
2019-05-15T15:48:40.424Z,28.27
2019-05-15T15:51:12.464Z,28.15
2019-05-15T15:53:44.924Z,28.13
2019-05-15T15:56:18.435Z,27.95
2019-05-15T15:58:50.687Z,28.08
2019-05-15T16:01:25.654Z,28.05
2019-05-15T16:03:56.992Z,27.91
2019-05-15T16:06:29.713Z,27.86
2019-05-15T16:09:01.823Z,28.01
2019-05-15T16:11:35.748Z,27.86
2019-05-15T16:14:09.153Z,27.81
2019-05-15T16:16:41.552Z,27.75
2019-05-15T16:19:13.660Z,27.71
2019-05-15T16:21:45.763Z,27.48
2019-05-15T16:24:21.594Z,27.74
2019-05-15T16:26:51.673Z,27.47
2019-05-15T16:29:23.779Z,27.27
2019-05-15T16:31:58.090Z,27.22
2019-05-15T16:34:29.551Z,27.25
2019-05-15T16:37:02.667Z,27.11
2019-05-15T16:39:38.165Z,27.07
2019-05-15T16:42:11.497Z,26.93
2019-05-15T16:44:43.621Z,26.85
2019-05-15T16:47:15.694Z,26.63
2019-05-15T16:49:48.541Z,26.44
2019-05-15T16:52:20.857Z,26.15
2019-05-15T16:54:52.910Z,26.02
2019-05-15T16:57:24.931Z,25.83
2019-05-15T16:59:58.601Z,25.63
2019-05-15T17:02:33.461Z,25.71
2019-05-15T17:05:06.764Z,25.95
2019-05-15T17:07:40.081Z,25.99
2019-05-15T17:10:12.537Z,26.11
2019-05-15T17:12:44.627Z,25.95
2019-05-15T17:15:16.898Z,25.93
2019-05-15T17:17:49.453Z,25.89
2019-05-15T17:20:21.678Z,25.81
2019-05-15T17:22:57.743Z,25.83
2019-05-15T17:25:29.322Z,25.58
2019-05-15T17:28:01.360Z,25.66
2019-05-15T17:30:35.391Z,25.62
2019-05-15T17:33:07.516Z,25.46
2019-05-15T17:35:39.532Z,25.38
2019-05-15T17:38:11.725Z,25.31
2019-05-15T17:40:45.735Z,25.27
2019-05-15T17:43:18.675Z,25.06
2019-05-15T17:45:52.370Z,24.83
2019-05-15T17:48:24.345Z,24.70
2019-05-15T17:50:58.439Z,24.60
2019-05-15T17:53:31.165Z,24.50
2019-05-15T17:56:03.326Z,24.52
2019-05-15T17:58:35.400Z,24.45
2019-05-15T18:01:08.745Z,24.47
2019-05-15T18:03:42.081Z,24.38
2019-05-15T18:06:14.192Z,24.31
2019-05-15T18:08:48.398Z,24.08
2019-05-15T18:11:22.820Z,23.89
2019-05-15T18:13:58.368Z,23.79
2019-05-15T18:16:32.080Z,23.50
2019-05-15T18:19:08.319Z,23.18
2019-05-15T18:21:40.710Z,23.10
2019-05-15T18:24:12.739Z,22.92
2019-05-15T18:26:45.901Z,22.84
2019-05-15T18:29:21.648Z,22.57
2019-05-15T18:31:55.817Z,22.45
2019-05-15T18:34:30.534Z,22.28
2019-05-15T18:37:02.937Z,22.10
2019-05-15T18:39:35.218Z,22.01
2019-05-15T18:42:07.356Z,21.77
2019-05-15T18:44:41.129Z,21.68
2019-05-15T18:47:13.283Z,21.50
2019-05-15T18:49:59.232Z,21.40
2019-05-15T18:52:38.530Z,21.25
2019-05-15T18:55:11.243Z,21.02
2019-05-15T18:57:43.229Z,20.70
2019-05-15T19:00:18.423Z,20.64
2019-05-15T19:02:50.582Z,20.52
2019-05-15T19:05:22.579Z,20.28
2019-05-15T19:07:57.985Z,20.17
2019-05-15T19:10:30.182Z,20.11
2019-05-15T19:13:02.164Z,20.02
2019-05-15T19:15:34.251Z,19.92
2019-05-15T19:18:08.062Z,19.76
2019-05-15T19:20:39.914Z,19.64
2019-05-15T19:23:11.944Z,19.44
2019-05-15T19:25:44.021Z,19.27
2019-05-15T19:28:18.733Z,19.13
2019-05-15T19:30:50.196Z,19.02
2019-05-15T19:33:33.306Z,18.87
2019-05-15T19:35:57.624Z,18.79
2019-05-15T19:38:29.900Z,18.67
2019-05-15T19:41:03.203Z,18.53
2019-05-15T19:43:37.943Z,18.53
2019-05-15T19:46:10.276Z,18.42
2019-05-15T19:48:42.327Z,18.25
2019-05-15T19:51:14.411Z,18.13
2019-05-15T19:53:47.886Z,18.08
2019-05-15T19:56:20.053Z,17.84
2019-05-15T19:58:52.271Z,17.75
2019-05-15T20:01:24.297Z,17.65
2019-05-15T20:03:58.207Z,17.51
2019-05-15T20:06:31.324Z,17.51
2019-05-15T20:09:07.906Z,17.41
2019-05-15T20:11:47.774Z,17.30
2019-05-15T20:14:23.362Z,17.27
2019-05-15T20:16:55.905Z,17.17
2019-05-15T20:19:28.854Z,17.12
2019-05-15T20:22:02.246Z,17.08
2019-05-15T20:24:34.329Z,17.02
2019-05-15T20:27:08.597Z,16.97
2019-05-15T20:29:40.796Z,16.88
2019-05-15T20:32:12.959Z,16.81
2019-05-15T20:34:48.327Z,16.74
2019-05-15T20:37:20.756Z,16.64
2019-05-15T20:39:53.134Z,16.59
2019-05-15T20:42:25.548Z,16.50
2019-05-15T20:44:58.692Z,16.45
2019-05-15T20:47:30.775Z,16.36
2019-05-15T20:50:08.508Z,16.35
2019-05-15T20:52:40.518Z,16.24
2019-05-15T20:55:12.777Z,16.25
2019-05-15T20:57:47.406Z,16.16
2019-05-15T21:00:19.489Z,16.08
2019-05-15T21:02:52.047Z,16.05
2019-05-15T21:05:27.628Z,16.06
2019-05-15T21:07:59.510Z,16.04
2019-05-15T21:10:31.749Z,15.92
2019-05-15T21:13:03.946Z,15.88
2019-05-15T21:15:36.285Z,15.85
2019-05-15T21:18:14.219Z,15.83
2019-05-15T21:20:42.103Z,15.81
2019-05-15T21:23:14.189Z,15.74
2019-05-15T21:25:48.469Z,15.77
2019-05-15T21:28:20.159Z,15.72
2019-05-15T21:30:52.137Z,15.67
2019-05-15T21:33:24.510Z,15.69
2019-05-15T21:35:58.348Z,15.73
2019-05-15T21:38:30.925Z,15.65
2019-05-15T21:41:03.030Z,15.62
2019-05-15T21:43:35.259Z,15.58
2019-05-15T21:46:08.487Z,15.62
2019-05-15T21:48:40.751Z,15.63
2019-05-15T21:51:15.453Z,15.68
2019-05-15T21:54:09.962Z,15.50
2019-05-15T21:56:41.661Z,15.52
2019-05-15T21:59:13.805Z,15.57
2019-05-15T22:01:48.324Z,15.49
2019-05-15T22:04:23.964Z,15.48
2019-05-15T22:06:58.438Z,15.48
2019-05-15T22:09:31.870Z,15.48
2019-05-15T22:12:04.781Z,15.55
2019-05-15T22:14:37.916Z,15.61
2019-05-15T22:17:20.145Z,15.58
2019-05-15T22:19:55.245Z,15.63
2019-05-15T22:22:30.311Z,15.49
2019-05-15T22:25:11.287Z,15.70
2019-05-15T22:27:54.220Z,15.77
2019-05-15T22:30:35.728Z,15.76
2019-05-15T22:33:08.715Z,15.84
2019-05-15T22:35:41.134Z,15.97
2019-05-15T22:38:21.028Z,16.01
2019-05-15T22:40:54.341Z,16.00
2019-05-15T22:43:28.796Z,16.00
2019-05-15T22:46:05.323Z,15.99
2019-05-15T22:48:38.981Z,16.01
2019-05-15T22:51:11.490Z,16.06
2019-05-15T22:53:43.510Z,16.03
2019-05-15T22:56:15.534Z,16.07
2019-05-15T22:58:48.035Z,16.17
2019-05-15T23:01:22.222Z,16.17
2019-05-15T23:03:54.321Z,16.20
2019-05-15T23:06:28.130Z,16.24
2019-05-15T23:09:00.087Z,16.20
2019-05-15T23:11:32.074Z,16.18
2019-05-15T23:14:04.276Z,16.18
2019-05-15T23:19:33.496Z,16.23
2019-05-15T23:22:08.176Z,16.25
2019-05-15T23:24:39.593Z,16.42
2019-05-15T23:27:11.757Z,16.40
2019-05-15T23:29:43.957Z,16.56
2019-05-15T23:32:18.228Z,16.60
2019-05-15T23:34:51.161Z,16.49
2019-05-15T23:37:23.896Z,16.50
2019-05-15T23:39:58.179Z,16.42
2019-05-15T23:42:32.283Z,16.46
2019-05-15T23:45:18.411Z,16.34
2019-05-15T23:47:53.804Z,16.41
2019-05-15T23:50:25.765Z,16.40
2019-05-15T23:52:58.364Z,16.48
2019-05-15T23:55:30.555Z,16.42
2019-05-15T23:58:02.629Z,16.45
